Time;durP1;ratioP1;P1;durP2;ratioP2;P2;SDS_P1;SDS_P2;PMS_P1;PMS_P2;Temp;Humidity;BMP_temperature;BMP_pressure;BME280_temperature;BME280_humidity;BME280_pressure;Samples;Min_cycle;Max_cycle;Signal;HPM_P1;HPM_P2
2022/09/25 00:01:24;;;;;;;45.53;29.55;;;5.60;99.90;;;;;;5090051;28;20028;-74
2022/09/25 00:03:50;;;;;;;36.88;24.92;;;5.60;99.90;;;;;;5088951;28;20094;-75
2022/09/25 00:06:21;;;;;;;42.63;25.75;;;5.50;99.90;;;;;;5091183;28;20028;-75
2022/09/25 00:08:47;;;;;;;42.80;26.40;;;5.50;99.90;;;;;;5092267;28;20028;-75
2022/09/25 00:11:20;;;;;;;33.42;22.88;;;5.50;99.90;;;;;;5092275;28;20032;-74
2022/09/25 00:13:46;;;;;;;35.83;21.52;;;5.50;99.90;;;;;;5093316;28;20051;-77
2022/09/25 00:16:15;;;;;;;34.58;22.52;;;5.60;99.90;;;;;;5092687;28;20041;-76
2022/09/25 00:21:30;;;;;;;29.20;19.25;;;5.50;99.90;;;;;;5094659;28;20058;-76
2022/09/25 00:24:06;;;;;;;27.67;19.13;;;5.50;99.90;;;;;;5094441;28;20031;-76
2022/09/25 00:26:35;;;;;;;34.15;19.15;;;5.50;99.90;;;;;;5094782;28;20027;-75
2022/09/25 00:29:01;;;;;;;33.80;21.60;;;5.50;99.90;;;;;;5093157;28;20031;-77
2022/09/25 00:31:28;;;;;;;27.05;17.02;;;5.50;99.90;;;;;;5093254;28;20043;-75
2022/09/25 00:33:57;;;;;;;22.80;16.65;;;5.50;99.90;;;;;;5094343;28;20024;-74
2022/09/25 00:36:23;;;;;;;20.33;14.43;;;5.50;99.90;;;;;;5089524;28;20023;-76
2022/09/25 00:38:49;;;;;;;22.13;14.57;;;5.50;99.90;;;;;;5072747;28;20028;-76
2022/09/25 00:41:17;;;;;;;21.95;13.82;;;5.40;99.90;;;;;;5072801;28;20028;-75
2022/09/25 00:43:55;;;;;;;18.63;13.07;;;5.50;99.90;;;;;;5073737;28;20036;-76
2022/09/25 00:46:40;;;;;;;18.15;12.27;;;5.50;99.90;;;;;;5073898;28;20141;-75
2022/09/25 00:49:16;;;;;;;18.42;12.95;;;5.50;99.90;;;;;;5074057;28;20025;-75
2022/09/25 00:51:55;;;;;;;21.08;13.85;;;5.50;99.90;;;;;;5072744;28;20035;-76
2022/09/25 00:54:28;;;;;;;21.27;13.27;;;5.60;99.90;;;;;;5073837;28;20016;-76
2022/09/25 00:56:57;;;;;;;22.98;14.02;;;5.60;99.90;;;;;;5073438;28;20054;-75
2022/09/25 00:59:29;;;;;;;22.25;14.20;;;5.60;99.90;;;;;;5072598;28;20113;-76
2022/09/25 01:01:56;;;;;;;18.25;13.07;;;5.60;99.90;;;;;;5072794;28;20067;-75
2022/09/25 01:04:22;;;;;;;18.20;14.27;;;5.60;99.90;;;;;;5073621;28;20040;-75
2022/09/25 01:06:49;;;;;;;18.17;13.05;;;5.70;99.90;;;;;;5072558;28;20016;-75
2022/09/25 01:09:16;;;;;;;19.17;13.65;;;5.60;99.90;;;;;;5093693;28;20171;-76
2022/09/25 01:11:41;;;;;;;22.33;14.02;;;5.60;99.90;;;;;;5092505;28;20035;-76
2022/09/25 01:14:08;;;;;;;21.65;13.75;;;5.70;99.90;;;;;;5075491;28;20024;-75
2022/09/25 01:16:44;;;;;;;21.45;13.55;;;5.60;99.90;;;;;;5073619;28;20023;-76
2022/09/25 01:19:31;;;;;;;22.08;14.32;;;5.60;99.90;;;;;;5073377;28;20497;-75
2022/09/25 01:21:59;;;;;;;21.20;13.85;;;5.60;99.90;;;;;;5073507;28;20024;-75
2022/09/25 01:24:41;;;;;;;18.08;12.75;;;5.60;99.90;;;;;;5073303;28;20039;-76
2022/09/25 01:27:36;;;;;;;20.38;13.05;;;5.60;99.90;;;;;;5073561;28;20103;-77
2022/09/25 01:30:15;;;;;;;22.45;13.48;;;5.60;99.90;;;;;;5072014;28;20020;-75
2022/09/25 01:33:00;;;;;;;22.90;14.57;;;5.70;99.90;;;;;;5073519;28;20053;-76
2022/09/25 01:35:47;;;;;;;22.58;13.82;;;5.70;99.90;;;;;;5075151;28;20035;-75
2022/09/25 01:38:31;;;;;;;19.73;14.05;;;5.70;99.90;;;;;;5072012;28;20060;-75
2022/09/25 01:41:10;;;;;;;21.98;13.85;;;5.70;99.90;;;;;;5073270;28;20025;-75
2022/09/25 01:43:43;;;;;;;18.98;13.10;;;5.80;99.90;;;;;;5073058;28;20043;-75
2022/09/25 01:46:14;;;;;;;21.13;13.85;;;5.70;99.90;;;;;;5073336;28;20021;-75
2022/09/25 01:48:43;;;;;;;19.58;13.30;;;5.70;99.90;;;;;;5073251;28;20061;-75
2022/09/25 01:51:23;;;;;;;20.58;14.32;;;5.80;99.90;;;;;;5073120;28;20108;-77
2022/09/25 01:53:57;;;;;;;21.27;14.20;;;5.80;99.90;;;;;;5073018;28;20493;-75
2022/09/25 01:56:32;;;;;;;19.55;13.75;;;5.80;99.90;;;;;;5073156;28;20447;-76
2022/09/25 01:59:15;;;;;;;18.13;13.27;;;5.80;99.90;;;;;;5071897;28;20032;-76
2022/09/25 02:01:43;;;;;;;19.08;12.88;;;5.80;99.90;;;;;;5073103;28;20020;-76
2022/09/25 02:04:21;;;;;;;19.60;13.23;;;5.80;99.90;;;;;;5072829;28;20394;-75
2022/09/25 02:06:49;;;;;;;19.33;13.63;;;5.80;99.90;;;;;;5071785;28;20029;-77
2022/09/25 02:09:24;;;;;;;22.10;14.15;;;5.80;99.90;;;;;;5076032;28;20028;-76
2022/09/25 02:11:54;;;;;;;20.42;13.35;;;5.80;99.90;;;;;;5077007;28;20021;-75
2022/09/25 02:14:31;;;;;;;21.92;14.55;;;5.90;99.90;;;;;;5076923;28;20021;-75
2022/09/25 02:17:00;;;;;;;20.08;14.98;;;5.80;99.90;;;;;;5076959;28;20025;-75
2022/09/25 02:22:18;;;;;;;18.73;12.50;;;5.90;99.90;;;;;;5076982;28;20046;-76
2022/09/25 02:24:55;;;;;;;22.05;14.70;;;5.90;99.90;;;;;;5084383;28;20042;-76
2022/09/25 02:27:23;;;;;;;20.38;12.20;;;6.00;99.90;;;;;;5096933;28;20028;-75
2022/09/25 02:29:49;;;;;;;23.40;14.57;;;6.00;99.90;;;;;;5095657;28;20016;-76
2022/09/25 02:32:29;;;;;;;22.13;15.38;;;6.00;99.90;;;;;;5095604;28;20051;-76
2022/09/25 02:34:56;;;;;;;20.10;13.85;;;6.00;99.90;;;;;;5096770;28;20035;-75
2022/09/25 02:37:22;;;;;;;20.30;13.25;;;6.10;99.90;;;;;;5082844;28;20539;-76
2022/09/25 02:39:52;;;;;;;20.52;13.30;;;6.10;99.90;;;;;;5076310;28;20024;-75
2022/09/25 02:42:33;;;;;;;22.23;13.55;;;6.10;99.90;;;;;;5075576;28;20021;-75
2022/09/25 02:45:24;;;;;;;20.67;13.02;;;6.20;99.90;;;;;;5074811;28;20122;-76
2022/09/25 02:48:30;;;;;;;20.33;13.38;;;6.30;99.90;;;;;;5076231;28;20016;-76
2022/09/25 02:51:13;;;;;;;20.70;14.10;;;6.20;99.90;;;;;;5076287;28;20020;-75
2022/09/25 02:54:02;;;;;;;21.88;14.30;;;6.30;99.90;;;;;;5074867;28;20023;-75
2022/09/25 02:56:46;;;;;;;19.75;13.45;;;6.30;99.90;;;;;;5076297;28;20056;-76
2022/09/25 02:59:23;;;;;;;21.15;13.93;;;6.30;99.90;;;;;;5074749;28;20021;-76
2022/09/25 03:01:50;;;;;;;20.52;13.45;;;6.30;99.90;;;;;;5075853;28;20039;-77
2022/09/25 03:04:18;;;;;;;18.75;13.05;;;6.30;99.90;;;;;;5074641;28;20119;-75
2022/09/25 03:06:44;;;;;;;20.00;12.43;;;6.40;99.90;;;;;;5075905;28;20104;-75
2022/09/25 03:09:12;;;;;;;16.95;13.20;;;6.40;99.90;;;;;;5076204;28;20032;-74
2022/09/25 03:11:40;;;;;;;24.30;13.57;;;6.50;99.90;;;;;;5075699;28;20478;-75
2022/09/25 03:14:06;;;;;;;19.17;13.77;;;6.50;99.90;;;;;;5075651;28;20024;-76
2022/09/25 03:16:46;;;;;;;22.75;14.45;;;6.50;99.90;;;;;;5074415;28;20027;-75
2022/09/25 03:19:12;;;;;;;22.52;14.38;;;6.50;99.90;;;;;;5075376;28;20021;-76
2022/09/25 03:21:38;;;;;;;19.58;13.60;;;6.50;99.90;;;;;;5074428;28;20013;-76
2022/09/25 03:24:04;;;;;;;25.50;14.38;;;6.60;99.90;;;;;;5075486;28;20494;-75
2022/09/25 03:26:30;;;;;;;21.88;13.35;;;6.60;99.90;;;;;;5075595;28;20025;-76
2022/09/25 03:28:56;;;;;;;23.40;14.90;;;6.60;99.90;;;;;;5074195;28;20025;-76
2022/09/25 03:31:22;;;;;;;25.23;14.00;;;6.60;99.90;;;;;;5074077;28;20044;-75
2022/09/25 03:33:47;;;;;;;21.80;13.68;;;6.60;99.90;;;;;;5075514;28;20024;-75
2022/09/25 03:36:21;;;;;;;20.67;13.50;;;6.60;99.90;;;;;;5079616;28;20458;-75
2022/09/25 03:38:50;;;;;;;20.13;14.52;;;6.60;99.90;;;;;;5095435;28;20016;-76
2022/09/25 03:41:20;;;;;;;26.25;13.57;;;6.60;99.90;;;;;;5094013;28;20023;-75
2022/09/25 03:43:50;;;;;;;25.25;14.48;;;6.60;99.90;;;;;;5095827;28;20035;-75
2022/09/25 03:46:18;;;;;;;20.88;14.02;;;6.60;99.90;;;;;;5095390;28;20043;-75
2022/09/25 03:48:45;;;;;;;17.92;12.70;;;6.60;99.90;;;;;;5094147;28;20016;-75
2022/09/25 03:51:11;;;;;;;24.48;13.98;;;6.70;99.90;;;;;;5095363;28;20020;-75
2022/09/25 03:53:37;;;;;;;25.38;14.77;;;6.60;99.90;;;;;;5095465;28;20494;-76
2022/09/25 03:56:05;;;;;;;23.08;14.40;;;6.60;99.90;;;;;;5094046;28;20017;-77
2022/09/25 03:58:31;;;;;;;20.55;13.70;;;6.60;99.90;;;;;;5094048;28;20034;-76
2022/09/25 04:00:57;;;;;;;18.10;11.77;;;6.60;99.90;;;;;;5093564;28;20028;-77
2022/09/25 04:03:31;;;;;;;18.83;13.38;;;6.70;99.90;;;;;;5093761;28;20034;-76
2022/09/25 04:05:58;;;;;;;19.83;13.10;;;6.70;99.90;;;;;;5093744;28;20145;-75
2022/09/25 04:08:25;;;;;;;20.33;12.40;;;6.70;99.90;;;;;;5093721;28;20416;-76
2022/09/25 04:10:55;;;;;;;17.70;12.25;;;6.70;99.90;;;;;;5094880;28;20028;-75
2022/09/25 04:13:22;;;;;;;17.67;12.98;;;6.80;99.90;;;;;;5081107;28;20017;-75
2022/09/25 04:15:48;;;;;;;18.02;13.68;;;6.80;99.90;;;;;;5074737;28;20033;-74
2022/09/25 04:18:14;;;;;;;14.45;11.65;;;6.80;99.90;;;;;;5074469;28;20013;-76
2022/09/25 04:20:39;;;;;;;19.05;11.80;;;6.80;99.90;;;;;;5073240;28;20493;-77
2022/09/25 04:23:05;;;;;;;15.88;11.30;;;6.80;99.90;;;;;;5092742;28;20172;-75
2022/09/25 04:25:31;;;;;;;17.05;12.02;;;6.90;99.90;;;;;;5094682;28;20385;-76
2022/09/25 04:27:57;;;;;;;16.58;13.10;;;6.90;99.90;;;;;;5093395;28;20043;-76
2022/09/25 04:30:24;;;;;;;16.75;12.75;;;6.90;99.90;;;;;;5092554;28;20098;-75
2022/09/25 04:35:34;;;;;;;15.18;11.80;;;6.90;99.90;;;;;;5094510;28;20035;-74
2022/09/25 04:38:00;;;;;;;15.82;11.07;;;6.90;99.90;;;;;;5074650;28;20024;-76
2022/09/25 04:40:27;;;;;;;18.90;11.10;;;6.90;99.90;;;;;;5074065;28;20588;-77
2022/09/25 04:43:00;;;;;;;18.08;11.52;;;6.90;99.90;;;;;;5081081;28;20023;-76
2022/09/25 04:45:25;;;;;;;;;;;6.90;99.90;;;;;;5094788;28;20026;-75
2022/09/25 04:47:58;;;;;;;18.20;12.68;;;6.90;99.90;;;;;;5094104;28;20284;-77
2022/09/25 04:50:25;;;;;;;17.60;11.85;;;6.90;99.90;;;;;;5094268;28;20028;-74
2022/09/25 04:52:51;;;;;;;15.20;11.60;;;6.90;99.90;;;;;;5094187;28;20160;-76
2022/09/25 04:55:18;;;;;;;18.13;13.02;;;6.90;99.90;;;;;;5092996;28;20107;-75
2022/09/25 04:57:44;;;;;;;20.45;13.32;;;6.90;99.90;;;;;;5092761;28;20024;-76
2022/09/25 05:00:12;;;;;;;17.73;12.68;;;6.90;99.90;;;;;;5092751;28;20431;-75
2022/09/25 05:02:37;;;;;;;18.80;13.60;;;6.90;99.90;;;;;;5093844;28;20047;-75
2022/09/25 05:05:03;;;;;;;17.70;11.40;;;6.90;99.90;;;;;;5093884;28;20051;-76
2022/09/25 05:07:29;;;;;;;17.92;11.68;;;7.00;99.90;;;;;;5093880;28;20020;-75
2022/09/25 05:09:54;;;;;;;15.00;11.02;;;7.00;99.90;;;;;;5093954;28;20046;-75
2022/09/25 05:12:20;;;;;;;16.73;12.02;;;7.10;99.90;;;;;;5087812;28;20058;-77
2022/09/25 05:14:45;;;;;;;19.55;12.05;;;7.10;99.90;;;;;;5073588;28;20020;-75
2022/09/25 05:17:11;;;;;;;18.75;12.93;;;7.20;99.90;;;;;;5073441;28;20028;-76
2022/09/25 05:19:37;;;;;;;19.20;12.57;;;7.20;99.90;;;;;;5073536;28;20021;-77
2022/09/25 05:22:03;;;;;;;15.25;11.13;;;7.30;99.90;;;;;;5073376;28;20059;-77
2022/09/25 05:24:30;;;;;;;16.27;11.32;;;7.40;99.90;;;;;;5072050;28;20040;-76
2022/09/25 05:26:56;;;;;;;17.33;11.98;;;7.40;99.90;;;;;;5074972;28;20463;-77
2022/09/25 05:29:21;;;;;;;20.75;14.05;;;7.50;99.90;;;;;;5092237;28;20123;-77
2022/09/25 05:31:48;;;;;;;16.27;11.57;;;7.50;99.90;;;;;;5093535;28;20562;-75
2022/09/25 05:34:14;;;;;;;19.40;11.90;;;7.60;99.90;;;;;;5093547;28;20021;-76
2022/09/25 05:36:40;;;;;;;19.67;13.35;;;7.60;99.90;;;;;;5093375;28;20489;-75
2022/09/25 05:39:08;;;;;;;21.08;14.75;;;7.70;99.90;;;;;;5091979;28;20016;-77
2022/09/25 05:41:35;;;;;;;26.23;15.40;;;7.70;99.90;;;;;;5091911;28;20473;-77
2022/09/25 05:44:05;;;;;;;20.20;14.27;;;7.80;99.90;;;;;;5093271;28;20504;-77
2022/09/25 05:46:39;;;;;;;21.05;14.88;;;7.80;99.90;;;;;;5093414;28;20086;-76
2022/09/25 05:49:05;;;;;;;22.30;15.82;;;7.80;99.90;;;;;;5093336;28;20417;-75
2022/09/25 05:51:31;;;;;;;20.85;14.60;;;7.80;99.90;;;;;;5093337;28;20031;-75
2022/09/25 05:53:59;;;;;;;20.10;13.38;;;7.90;99.90;;;;;;5091928;28;20030;-75
2022/09/25 05:56:25;;;;;;;20.58;14.18;;;7.90;99.90;;;;;;5093468;28;20047;-76
2022/09/25 05:58:51;;;;;;;23.70;13.90;;;8.00;99.90;;;;;;5084768;28;20031;-74
2022/09/25 06:01:17;;;;;;;20.95;14.52;;;8.00;99.90;;;;;;5073249;28;20473;-75
2022/09/25 06:03:43;;;;;;;23.17;15.90;;;8.10;99.90;;;;;;5072883;28;20036;-74
2022/09/25 06:06:09;;;;;;;22.08;15.32;;;8.20;99.90;;;;;;5073089;28;20032;-75
2022/09/25 06:08:34;;;;;;;26.52;16.40;;;8.20;99.90;;;;;;5073058;28;20474;-75
2022/09/25 06:11:01;;;;;;;24.58;15.77;;;8.30;99.90;;;;;;5071720;28;20028;-75
2022/09/25 06:13:29;;;;;;;33.83;18.25;;;8.30;99.90;;;;;;5087064;28;20025;-77
2022/09/25 06:15:55;;;;;;;30.58;17.90;;;8.40;99.90;;;;;;5091945;28;20034;-74
2022/09/25 06:18:23;;;;;;;31.38;19.25;;;8.40;99.90;;;;;;5092705;28;20025;-77
2022/09/25 06:20:50;;;;;;;37.03;22.65;;;8.50;99.90;;;;;;5093255;28;20032;-74
2022/09/25 06:23:16;;;;;;;30.15;20.15;;;8.50;99.90;;;;;;5092825;28;20044;-75
2022/09/25 06:25:42;;;;;;;26.27;17.42;;;8.50;99.90;;;;;;5093057;28;20020;-74
2022/09/25 06:28:09;;;;;;;25.58;17.45;;;8.50;99.90;;;;;;5092913;28;20020;-75
2022/09/25 06:30:36;;;;;;;25.75;17.23;;;8.60;99.90;;;;;;5091671;28;20039;-77
2022/09/25 06:33:12;;;;;;;29.27;17.70;;;8.60;99.90;;;;;;5092876;28;20498;-76
2022/09/25 06:35:46;;;;;;;28.42;17.92;;;8.60;99.90;;;;;;5090844;28;20035;-75
2022/09/25 06:38:13;;;;;;;32.03;20.42;;;8.60;99.90;;;;;;5091186;28;20014;-76
2022/09/25 06:40:39;;;;;;;40.72;23.20;;;8.70;99.90;;;;;;5092497;28;20103;-74
2022/09/25 06:43:08;;;;;;;36.20;22.52;;;8.70;99.90;;;;;;5092217;28;20431;-77
2022/09/25 06:45:34;;;;;;;36.58;23.23;;;8.70;99.90;;;;;;5091116;28;20388;-74
2022/09/25 06:48:05;;;;;;;37.58;22.17;;;8.70;99.90;;;;;;5092743;28;20028;-77
2022/09/25 06:50:37;;;;;;;31.83;20.35;;;8.80;99.90;;;;;;5091303;28;20024;-74
2022/09/25 06:53:03;;;;;;;30.92;20.30;;;8.80;99.90;;;;;;5092863;28;20092;-77
2022/09/25 06:55:31;;;;;;;30.30;20.00;;;8.80;99.90;;;;;;5096035;28;20086;-76
2022/09/25 06:57:57;;;;;;;29.48;20.80;;;8.90;99.90;;;;;;5083114;28;20028;-75
2022/09/25 07:00:22;;;;;;;29.60;20.77;;;8.90;99.90;;;;;;5075947;28;20035;-75
2022/09/25 07:05:33;;;;;;;32.38;20.48;;;9.00;99.90;;;;;;5075899;28;20521;-76
2022/09/25 07:07:58;;;;;;;35.88;23.02;;;9.00;99.90;;;;;;5074668;28;20029;-76
2022/09/25 07:10:24;;;;;;;33.38;21.65;;;9.00;99.90;;;;;;5094594;28;20047;-75
2022/09/25 07:12:49;;;;;;;35.80;23.35;;;9.10;99.90;;;;;;5086683;28;20055;-75
2022/09/25 07:15:15;;;;;;;33.63;23.63;;;9.20;99.90;;;;;;5075787;28;20028;-77
2022/09/25 07:17:42;;;;;;;38.22;23.02;;;9.20;99.90;;;;;;5076573;28;20028;-75
2022/09/25 07:20:09;;;;;;;33.60;22.33;;;9.20;99.90;;;;;;5095466;28;20152;-75
2022/09/25 07:22:34;;;;;;;38.10;24.52;;;9.30;99.90;;;;;;5094422;28;20427;-76
2022/09/25 07:25:00;;;;;;;40.38;24.67;;;9.30;99.90;;;;;;5093955;28;20118;-77
2022/09/25 07:27:25;;;;;;;43.63;27.40;;;9.40;99.90;;;;;;5094347;28;20020;-77
2022/09/25 07:29:51;;;;;;;51.63;32.30;;;9.40;99.90;;;;;;5094917;28;20032;-76
2022/09/25 07:32:17;;;;;;;45.55;29.52;;;9.40;99.90;;;;;;5095236;28;20063;-76
2022/09/25 07:34:42;;;;;;;30.73;20.38;;;9.50;99.90;;;;;;5095255;28;20055;-75
2022/09/25 07:37:08;;;;;;;19.77;14.88;;;9.50;99.90;;;;;;5080801;28;20078;-75
2022/09/25 07:39:33;;;;;;;16.20;12.75;;;9.60;99.90;;;;;;5075061;28;20025;-75
2022/09/25 07:41:59;;;;;;;18.67;13.02;;;9.60;99.90;;;;;;5073865;28;20025;-76
2022/09/25 07:44:24;;;;;;;17.10;12.23;;;9.70;99.90;;;;;;5074960;28;20043;-76
2022/09/25 07:46:50;;;;;;;15.98;11.50;;;9.80;99.90;;;;;;5081493;28;20073;-73
2022/09/25 07:49:15;;;;;;;16.63;12.77;;;9.90;99.90;;;;;;5086296;28;20585;-74
2022/09/25 07:51:41;;;;;;;14.25;11.93;;;9.90;99.90;;;;;;5074657;28;20031;-73
2022/09/25 07:54:07;;;;;;;14.45;11.80;;;10.10;99.90;;;;;;5074578;28;20032;-73
2022/09/25 07:56:37;;;;;;;19.42;14.05;;;10.10;99.90;;;;;;5073288;28;20020;-73
2022/09/25 07:59:02;;;;;;;18.98;14.80;;;10.20;99.90;;;;;;5089407;28;20119;-75
2022/09/25 08:01:28;;;;;;;25.33;17.60;;;10.20;99.90;;;;;;5094625;28;20433;-77
2022/09/25 08:03:53;;;;;;;22.95;16.95;;;10.20;99.90;;;;;;5093293;28;20081;-74
2022/09/25 08:06:19;;;;;;;19.60;14.88;;;10.30;99.90;;;;;;5093672;28;20024;-75
2022/09/25 08:08:45;;;;;;;21.30;15.88;;;10.30;99.90;;;;;;5093898;28;20059;-75
2022/09/25 08:11:13;;;;;;;22.45;15.95;;;10.30;99.90;;;;;;5093446;28;20587;-75
2022/09/25 08:13:40;;;;;;;22.30;16.35;;;10.30;99.90;;;;;;5089426;28;20028;-75
2022/09/25 08:16:12;;;;;;;21.85;15.65;;;10.30;99.90;;;;;;5091997;28;20028;-76
2022/09/25 08:18:41;;;;;;;21.67;16.35;;;10.30;99.90;;;;;;5092380;28;20035;-74
2022/09/25 08:21:09;;;;;;;19.13;15.57;;;10.30;99.90;;;;;;5081052;28;20482;-75
2022/09/25 08:23:34;;;;;;;21.70;16.15;;;10.40;99.90;;;;;;5072869;28;20032;-73
2022/09/25 08:26:00;;;;;;;23.90;16.67;;;10.40;99.90;;;;;;5092230;28;20032;-73
2022/09/25 08:28:27;;;;;;;23.27;15.30;;;10.50;99.90;;;;;;5092355;28;20023;-74
2022/09/25 08:30:53;;;;;;;20.15;16.33;;;10.50;99.90;;;;;;5090759;28;20027;-73
2022/09/25 08:33:19;;;;;;;19.00;15.05;;;10.60;99.90;;;;;;5093060;28;20119;-72
2022/09/25 08:35:57;;;;;;;18.98;15.23;;;10.60;99.90;;;;;;5091919;28;20471;-73
2022/09/25 08:38:25;;;;;;;22.23;16.75;;;10.70;99.90;;;;;;5072655;28;20021;-73
2022/09/25 08:41:08;;;;;;;25.55;16.60;;;10.70;99.90;;;;;;5073745;28;20111;-72
2022/09/25 08:43:39;;;;;;;28.88;17.95;;;10.70;99.90;;;;;;5073889;28;20064;-74
2022/09/25 08:49:05;;;;;;;25.67;18.05;;;10.80;99.90;;;;;;5073994;28;20039;-72
2022/09/25 08:51:34;;;;;;;30.98;18.77;;;10.90;99.90;;;;;;5073662;28;20394;-73
2022/09/25 08:54:00;;;;;;;23.45;17.60;;;11.00;99.90;;;;;;5073660;28;20021;-72
2022/09/25 08:56:31;;;;;;;25.90;18.45;;;11.00;99.90;;;;;;5073657;28;20032;-73
2022/09/25 08:59:09;;;;;;;28.67;18.83;;;11.10;99.90;;;;;;5072201;28;20031;-73
2022/09/25 09:01:48;;;;;;;26.40;16.73;;;11.10;99.90;;;;;;5072256;28;20513;-74
2022/09/25 09:04:18;;;;;;;24.15;16.33;;;11.10;99.90;;;;;;5072249;28;20028;-74
2022/09/25 09:06:46;;;;;;;24.25;15.18;;;11.10;99.90;;;;;;5073448;28;20031;-75
2022/09/25 09:09:29;;;;;;;25.20;14.68;;;11.20;99.90;;;;;;5073527;28;20055;-73
2022/09/25 09:12:15;;;;;;;22.92;15.60;;;11.20;99.90;;;;;;5081544;28;20020;-74
2022/09/25 09:14:48;;;;;;;22.52;15.70;;;11.30;99.90;;;;;;5078411;28;20024;-72
2022/09/25 09:17:20;;;;;;;22.30;14.75;;;11.30;99.90;;;;;;5093341;28;20039;-73
2022/09/25 09:19:59;;;;;;;22.23;14.57;;;11.30;99.90;;;;;;5093689;28;20047;-72
2022/09/25 09:22:43;;;;;;;18.20;12.80;;;11.40;99.90;;;;;;5093513;28;20046;-73
2022/09/25 09:25:37;;;;;;;22.33;14.68;;;11.50;99.90;;;;;;5082798;28;20119;-74
2022/09/25 09:28:26;;;;;;;20.55;13.65;;;11.60;99.90;;;;;;5073147;28;20028;-73
2022/09/25 09:31:24;;;;;;;18.05;14.15;;;11.70;99.90;;;;;;5081707;28;20115;-72
2022/09/25 09:33:50;;;;;;;18.15;13.07;;;11.70;99.90;;;;;;5082965;28;20036;-73
2022/09/25 09:36:34;;;;;;;23.73;16.00;;;11.80;99.90;;;;;;5091514;28;20472;-73
2022/09/25 09:39:46;;;;;;;25.95;17.98;;;11.80;99.90;;;;;;5091903;28;20067;-72
2022/09/25 09:42:37;;;;;;;20.52;15.75;;;11.80;99.90;;;;;;5052211;28;20032;-73
2022/09/25 09:45:37;;;;;;;18.50;14.85;;;11.70;99.90;;;;;;5090768;28;20036;-74
2022/09/25 09:48:24;;;;;;;21.88;15.88;;;11.70;99.90;;;;;;5084783;28;20347;-74
2022/09/25 09:50:54;;;;;;;21.45;16.02;;;11.70;99.90;;;;;;5072171;28;20031;-73
2022/09/25 09:53:33;;;;;;;21.58;15.48;;;11.70;99.90;;;;;;5072754;28;20501;-74
2022/09/25 09:56:04;;;;;;;32.25;20.15;;;11.80;99.90;;;;;;5072856;28;20017;-73
2022/09/25 09:58:34;;;;;;;26.65;20.33;;;11.70;99.90;;;;;;5072779;28;20020;-73
2022/09/25 10:01:00;;;;;;;30.38;20.17;;;11.80;99.90;;;;;;5072823;28;20036;-75
2022/09/25 10:03:33;;;;;;;26.65;19.92;;;11.70;99.90;;;;;;5072707;28;20036;-76
2022/09/25 10:06:09;;;;;;;31.50;22.10;;;11.70;99.90;;;;;;5071637;28;20028;-76
2022/09/25 10:08:35;;;;;;;30.35;18.83;;;11.80;99.90;;;;;;5072765;28;20145;-72
2022/09/25 10:11:09;;;;;;;31.50;17.60;;;11.80;99.90;;;;;;5091409;28;20067;-76
2022/09/25 10:13:37;;;;;;;25.35;18.08;;;11.80;99.90;;;;;;5091553;28;20024;-76
2022/09/25 10:16:13;;;;;;;22.50;16.05;;;11.80;99.90;;;;;;5091802;28;20031;-76
2022/09/25 10:18:39;;;;;;;23.25;16.85;;;11.80;99.90;;;;;;5092693;28;20103;-73
2022/09/25 10:21:09;;;;;;;26.60;18.33;;;11.80;99.90;;;;;;5092479;28;20032;-73
2022/09/25 10:23:39;;;;;;;28.85;21.27;;;11.80;99.90;;;;;;5091145;28;20386;-73
2022/09/25 10:26:24;;;;;;;25.25;17.95;;;11.80;99.90;;;;;;5090661;28;20487;-73
2022/09/25 10:28:49;;;;;;;27.08;19.85;;;11.80;99.90;;;;;;5090310;28;20024;-73
2022/09/25 10:31:17;;;;;;;26.77;18.90;;;11.80;99.90;;;;;;5094654;28;20385;-77
2022/09/25 10:34:18;;;;;;;31.83;20.55;;;11.80;99.90;;;;;;5095537;28;20016;-72
2022/09/25 10:36:47;;;;;;;36.55;24.00;;;11.90;99.90;;;;;;5084396;28;20099;-77
2022/09/25 10:39:31;;;;;;;38.38;25.30;;;11.90;99.90;;;;;;5072928;28;20027;-71
2022/09/25 10:41:58;;;;;;;39.80;26.50;;;11.90;99.90;;;;;;5074252;28;20029;-76
2022/09/25 10:44:35;;;;;;;36.72;26.15;;;11.90;99.90;;;;;;5073960;28;20087;-74
2022/09/25 10:50:16;;;;;;;45.92;27.65;;;12.00;99.90;;;;;;5065785;28;20033;-77
2022/09/25 10:52:51;;;;;;;58.70;34.70;;;12.00;99.90;;;;;;5083943;28;20390;-75
2022/09/25 10:55:30;;;;;;;48.03;29.98;;;12.10;99.90;;;;;;5094154;28;20028;-74
2022/09/25 10:58:11;;;;;;;48.35;30.70;;;12.10;99.90;;;;;;5095698;28;20478;-77
2022/09/25 11:00:45;;;;;;;47.35;29.58;;;12.10;99.90;;;;;;5095626;28;20021;-74
2022/09/25 11:03:20;;;;;;;38.33;26.20;;;12.10;99.90;;;;;;5094589;28;20485;-74
2022/09/25 11:05:53;;;;;;;113.65;63.13;;;12.10;99.90;;;;;;5095979;28;20055;-76
2022/09/25 11:08:22;;;;;;;;;;;12.10;99.90;;;;;;5095520;28;20020;-74
2022/09/25 11:10:56;;;;;;;761.58;330.45;;;12.00;99.90;;;;;;5094436;28;19913;-70
2022/09/25 11:13:35;;;;;;;325.98;113.78;;;12.00;99.90;;;;;;5094461;28;20024;-71
2022/09/25 11:16:03;;;;;;;124.97;54.55;;;12.00;99.90;;;;;;5096001;28;20036;-71
2022/09/25 11:18:50;;;;;;;101.10;44.72;;;12.00;99.90;;;;;;5095725;28;20074;-79
2022/09/25 11:21:56;;;;;;;242.98;103.07;;;12.10;99.90;;;;;;5094537;28;20031;-77
2022/09/25 11:24:55;;;;;;;76.70;37.67;;;12.30;99.90;;;;;;5095604;28;20115;-73
2022/09/25 11:27:32;;;;;;;26.50;16.40;;;12.50;99.90;;;;;;5094393;28;20159;-79
2022/09/25 11:30:05;;;;;;;21.02;14.18;;;12.80;99.90;;;;;;5094205;28;20016;-79
2022/09/25 11:32:45;;;;;;;27.77;18.63;;;13.10;99.90;;;;;;5094953;28;20040;-73
2022/09/25 11:35:29;;;;;;;32.45;20.83;;;13.30;99.90;;;;;;5094055;28;20031;-73
2022/09/25 11:38:10;;;;;;;25.75;16.50;;;13.50;99.90;;;;;;5084071;28;20028;-73
2022/09/25 11:41:17;;;;;;;23.75;15.32;;;13.70;99.90;;;;;;5093772;28;20020;-74
2022/09/25 11:44:10;;;;;;;15.23;10.75;;;13.80;99.90;;;;;;5092489;28;20557;-77
2022/09/25 11:46:50;;;;;;;14.85;10.50;;;14.00;99.90;;;;;;5092750;28;20024;-70
2022/09/25 11:49:26;;;;;;;13.85;10.38;;;14.20;99.90;;;;;;5094074;28;20043;-77
2022/09/25 11:52:08;;;;;;;12.50;9.40;;;14.30;99.90;;;;;;5093873;28;20083;-78
2022/09/25 11:54:37;;;;;;;11.38;8.30;;;14.40;99.90;;;;;;5090041;28;20036;-77
2022/09/25 11:57:09;;;;;;;11.38;8.15;;;14.40;99.90;;;;;;5088124;28;20048;-78
2022/09/25 11:59:56;;;;;;;11.93;8.73;;;14.40;99.90;;;;;;5076810;28;20029;-78
2022/09/25 12:02:44;;;;;;;13.77;8.95;;;14.50;99.90;;;;;;5091437;28;20051;-79
2022/09/25 12:05:13;;;;;;;14.55;10.10;;;14.70;99.90;;;;;;5075816;28;20025;-78
2022/09/25 12:07:48;;;;;;;16.40;9.85;;;14.80;99.90;;;;;;5074476;28;20024;-79
2022/09/25 12:10:54;;;;;;;78.90;44.05;;;14.80;99.90;;;;;;5081289;28;20140;-79
2022/09/25 12:13:43;;;;;;;15.90;11.25;;;14.90;99.90;;;;;;5050469;28;20458;-78
2022/09/25 12:16:17;;;;;;;12.60;9.02;;;15.10;99.90;;;;;;5077272;28;20043;-77
2022/09/25 12:18:56;;;;;;;11.32;7.22;;;15.20;99.90;;;;;;5084476;28;20051;-79
2022/09/25 12:21:48;;;;;;;10.07;7.43;;;15.20;99.90;;;;;;5075013;28;20465;-79
2022/09/25 12:24:25;;;;;;;13.73;10.23;;;15.20;99.90;;;;;;5077919;28;20450;-79
2022/09/25 12:27:22;;;;;;;14.70;9.15;;;15.30;99.90;;;;;;5076583;28;20441;-79
2022/09/25 12:30:11;;;;;;;27.70;17.50;;;15.20;99.90;;;;;;5089297;28;20540;-73
2022/09/25 12:32:40;;;;;;;22.55;14.30;;;15.10;99.90;;;;;;5087671;28;20056;-72
2022/09/25 12:35:21;;;;;;;14.65;11.43;;;15.20;99.90;;;;;;5083655;28;20040;-72
2022/09/25 12:37:52;;;;;;;14.48;10.13;;;15.10;99.90;;;;;;5087264;28;20028;-72
2022/09/25 12:40:30;;;;;;;10.32;7.70;;;15.10;99.90;;;;;;5093264;28;20438;-79
2022/09/25 12:43:17;;;;;;;18.10;11.48;;;15.10;99.90;;;;;;5079689;28;20024;-72
2022/09/25 12:45:48;;;;;;;23.50;15.07;;;15.10;99.90;;;;;;5074104;28;20110;-73
2022/09/25 12:48:22;;;;;;;13.45;9.48;;;15.10;99.90;;;;;;5073844;28;20021;-72
2022/09/25 12:50:56;;;;;;;13.95;8.90;;;15.10;99.90;;;;;;5073531;28;20107;-72
2022/09/25 12:53:37;;;;;;;11.15;8.95;;;15.10;99.90;;;;;;5073519;28;20035;-78
2022/09/25 12:56:16;;;;;;;10.32;8.25;;;15.20;99.90;;;;;;5073707;28;20048;-71
2022/09/25 12:58:48;;;;;;;33.38;22.02;;;15.10;99.90;;;;;;5072764;28;20169;-72
2022/09/25 13:01:23;;;;;;;24.65;17.17;;;15.10;99.90;;;;;;5072475;28;20054;-71
2022/09/25 13:04:34;;;;;;;21.90;14.63;;;15.10;99.90;;;;;;5074117;28;20036;-79
2022/09/25 13:07:37;;;;;;;37.95;26.85;;;15.10;99.90;;;;;;5087438;28;20072;-79
2022/09/25 13:10:30;;;;;;;13.55;11.38;;;15.10;99.90;;;;;;5109149;28;20027;-79
2022/09/25 13:12:56;;;;;;;;;;;15.00;99.90;;;;;;5091263;28;20032;-79
2022/09/25 13:15:29;;;;;;;17.33;12.60;;;15.00;99.90;;;;;;5093419;28;19947;-79
2022/09/25 13:17:55;;;;;;;61.38;35.80;;;14.90;99.90;;;;;;5093416;28;20031;-79